Latest Weather Observations for Ngayawili (Elcho Island)

IDD60801

Issued at 10:21 am CST Tuesday 2 March 2021 (issued every 10 minutes, with the page automatically refreshed every 10 minutes)

About weather observations | Map of weather stations | Latest weather observations for NT | Other Formats
Station Details ID: 014517 Name: NGAYAWILI Lat: -12.00 Lon: 135.57 Height: 8.1 m
Data from the previous 72 hours. | See also: Recent months at Ngayawili (Elcho Island)
Date/Time
CST
Temp
°C
App
Temp
°C
Dew
Point
°C
Rel
Hum
%
Delta-T
°C
Wind Press
QNH
hPa
Press
MSL
hPa
Rain since
9am
mm
Dir  Spd
km/h
Gust
km/h
Spd
kts
Gust
kts
02/10:00am 30.0 33.2 27.0 84 2.2 WNW 24 28 13 15 1009.5 1009.4 0.0
02/09:30am 29.7 32.4 26.3 82 2.4 WNW 24 28 13 15 1009.4 1009.3 0.0
02/09:00am 29.6 33.0 26.2 82 2.4 WNW 20 24 11 13 1009.2 1009.1 0.0
02/08:30am 28.9 31.9 25.5 82 2.4 WNW 20 24 11 13 1009.0 1008.9 0.0
02/08:00am 28.7 30.4 24.7 79 2.8 WNW 24 28 13 15 1008.7 1008.6 0.0
02/07:30am 28.4 30.8 24.6 80 2.7 WNW 20 24 11 13 1008.3 1008.2 0.0
02/07:00am 28.0 30.4 24.2 80 2.6 WNW 19 22 10 12 1008.0 1007.9 0.0
02/06:30am 27.5 30.2 24.1 82 2.4 W 17 22 9 12 1007.4 1007.3 0.0
02/06:00am 27.6 29.7 23.8 80 2.6 W 19 22 10 12 1007.1 1007.0 0.0
02/05:30am 27.7 30.2 24.5 83 2.2 W 19 22 10 12 1006.9 1006.8 0.0
02/05:00am 27.9 30.7 25.3 86 1.8 W 20 26 11 14 1006.7 1006.6 0.0
02/04:30am 27.8 30.8 25.6 88 1.6 W 20 26 11 14 1006.6 1006.5 0.0
02/04:00am 27.6 31.6 25.6 89 1.4 SW 15 24 8 13 1006.6 1006.5 0.0
02/03:30am 28.1 32.0 26.1 89 1.4 W 17 20 9 11 1006.7 1006.6 0.0
02/03:00am 27.9 31.4 25.5 87 1.7 WSW 17 20 9 11 1006.9 1006.8 0.0
02/02:30am 28.0 31.2 25.0 84 2.1 WSW 17 20 9 11 1007.1 1007.0 0.0
02/02:00am 27.8 30.9 24.2 81 2.5 WSW 15 19 8 10 1007.1 1007.0 0.0
02/01:30am 27.7 30.4 24.1 81 2.5 WSW 17 22 9 12 1007.3 1007.2 0.0
02/01:00am 28.0 30.8 25.0 84 2.1 WSW 19 22 10 12 1007.8 1007.7 0.0
02/12:30am 28.1 31.3 24.9 83 2.2 WSW 17 19 9 10 1008.1 1008.0 0.0
02/12:00am 28.4 31.1 25.0 82 2.4 W 20 22 11 12 1008.5 1008.4 0.0
 
Date/Time
CST
Temp
°C
App
Temp
°C
Dew
Point
°C
Rel
Hum
%
Delta-T
°C
Wind Press
QNH
hPa
Press
MSL
hPa
Rain since
9am
mm
Dir  Spd
km/h
Gust
km/h
Spd
kts
Gust
kts
01/11:30pm 28.1 30.7 24.9 83 2.2 WSW 20 26 11 14 1008.6 1008.5 0.0
01/11:00pm 28.4 30.9 26.0 87 1.7 WSW 24 28 13 15 1008.6 1008.5 0.0
01/10:30pm 28.7 31.3 25.5 83 2.3 W 22 30 12 16 1008.7 1008.6 0.0
01/10:00pm 28.7 29.9 25.7 84 2.1 WNW 30 35 16 19 1008.8 1008.7 0.0
01/09:30pm 29.4 30.8 27.4 89 1.4 WNW 35 44 19 24 1008.6 1008.5 0.0
01/09:00pm 29.6 30.6 27.4 88 1.6 WNW 37 44 20 24 1008.6 1008.5 0.0
01/08:30pm 29.6 31.1 27.6 89 1.5 WNW 35 44 19 24 1008.5 1008.4 0.0
01/08:00pm 29.5 31.2 27.3 88 1.6 NW 33 43 18 23 1008.1 1008.0 0.0
01/07:30pm 29.6 31.6 27.4 88 1.6 NW 32 37 17 20 1007.7 1007.6 0.0
01/07:00pm 29.6 31.2 27.2 87 1.7 NW 33 39 18 21 1007.4 1007.3 0.0
01/06:30pm 29.7 31.4 27.3 87 1.7 NW 33 39 18 21 1007.3 1007.2 0.0
01/06:00pm 29.9 31.8 27.5 87 1.7 NW 33 39 18 21 1007.1 1007.0 0.0
01/05:30pm 30.8 34.1 28.2 86 1.9 NW 28 33 15 18 1006.6 1006.5 0.0
01/05:00pm 30.9 33.8 27.7 83 2.3 NW 28 33 15 18 1006.8 1006.7 0.0
01/04:30pm 31.2 34.8 27.5 81 2.7 WNW 24 28 13 15 1006.8 1006.7 0.0
01/04:00pm 31.3 34.4 27.4 80 2.8 WNW 26 30 14 16 1006.7 1006.6 0.0
01/03:30pm 31.2 33.9 27.3 80 2.8 WNW 28 32 15 17 1006.9 1006.8 0.0
01/03:00pm 31.6 35.2 27.5 79 3.0 WNW 24 32 13 17 1007.0 1006.9 0.0
01/02:30pm 31.5 33.5 27.4 79 3.0 WNW 32 35 17 19 1006.9 1006.8 0.0
01/02:00pm 31.3 34.0 27.4 80 2.8 WNW 28 32 15 17 1007.3 1007.2 0.0
01/01:30pm 31.3 33.9 27.2 79 3.0 WNW 28 32 15 17 1007.6 1007.5 0.0
01/01:00pm 30.8 34.3 27.4 82 2.5 W 24 30 13 16 1008.1 1008.0 0.0
01/12:30pm 31.5 35.3 27.8 81 2.7 W 24 30 13 16 1008.4 1008.3 0.0
01/12:00pm 31.2 35.1 28.0 83 2.3 W 24 30 13 16 1008.8 1008.7 0.0
01/11:30am 30.3 34.1 27.9 87 1.7 W 24 28 13 15 1008.9 1008.8 0.0
01/11:00am 30.4 33.7 27.6 85 2.0 W 26 30 14 16 1009.0 1008.9 0.0
01/10:30am 30.2 33.0 28.0 88 1.6 WNW 30 33 16 18 1008.8 1008.7 0.0
01/10:00am 30.1 33.3 28.1 89 1.5 WNW 28 33 15 18 1009.0 1008.9 0.0
01/09:30am 29.7 32.6 27.7 89 1.5 W 28 32 15 17 1009.2 1009.1 0.0
01/09:00am 29.9 31.9 27.5 87 1.7 WNW 32 35 17 19 1008.9 1008.8 0.0
01/08:30am 29.5 32.0 27.1 87 1.7 W 28 33 15 18 1008.8 1008.7 0.0
01/08:00am 29.4 32.1 27.4 89 1.4 WNW 28 35 15 19 1008.5 1008.4 0.0
01/07:30am 29.2 31.4 27.2 89 1.4 W 30 35 16 19 1008.2 1008.1 0.0
01/07:00am 29.2 31.3 27.0 88 1.6 W 30 35 16 19 1007.9 1007.8 0.0
01/06:30am 29.1 31.1 26.9 88 1.6 W 30 35 16 19 1007.7 1007.6 0.0
01/06:00am 29.2 31.7 27.0 88 1.6 WNW 28 33 15 18 1007.2 1007.1 0.0
01/05:30am 29.3 31.3 26.9 87 1.7 WNW 30 35 16 19 1006.8 1006.7 0.0
01/05:00am 29.3 32.0 27.3 89 1.4 WNW 28 32 15 17 1006.6 1006.5 0.0
01/04:30am 29.4 32.0 27.2 88 1.6 WNW 28 33 15 18 1006.5 1006.4 0.0
01/04:00am 29.4 32.3 27.6 90 1.3 WNW 28 33 15 18 1006.6 1006.5 0.0
01/03:30am 29.4 31.3 26.8 86 1.9 WNW 30 35 16 19 1006.7 1006.6 0.0
01/03:00am 29.3 32.0 27.3 89 1.4 WNW 28 35 15 19 1006.8 1006.7 0.0
01/02:30am 29.3 32.5 27.5 90 1.3 WNW 26 30 14 16 1006.8 1006.7 0.0
01/02:00am 29.3 32.3 27.3 89 1.4 WNW 26 32 14 17 1007.1 1007.0 0.0
01/01:30am 29.3 31.7 26.9 87 1.7 WNW 28 32 15 17 1007.3 1007.2 0.0
01/01:00am 29.4 32.0 27.2 88 1.6 WNW 28 32 15 17 1007.6 1007.5 0.0
01/12:30am 29.5 32.5 27.3 88 1.6 NW 26 30 14 16 1008.0 1007.9 0.0
01/12:00am 29.6 33.2 27.0 86 1.9 NW 22 26 12 14 1008.2 1008.1 0.0
 
Date/Time
CST
Temp
°C
App
Temp
°C
Dew
Point
°C
Rel
Hum
%
Delta-T
°C
Wind Press
QNH
hPa
Press
MSL
hPa
Rain since
9am
mm
Dir  Spd
km/h
Gust
km/h
Spd
kts
Gust
kts
28/11:30pm 29.5 32.7 26.5 84 2.1 WNW 22 26 12 14 1008.2 1008.1 0.0
28/11:00pm 29.4 33.2 26.8 86 1.9 WNW 20 24 11 13 1008.2 1008.1 0.0
28/10:30pm 29.5 33.2 27.1 87 1.7 WNW 22 26 12 14 1008.2 1008.1 0.0
28/10:00pm 29.4 32.5 26.8 86 1.9 WNW 24 28 13 15 1008.1 1008.0 0.0
28/09:30pm 29.4 31.9 27.0 87 1.7 WNW 28 32 15 17 1007.9 1007.8 0.0
28/09:00pm 29.4 32.2 27.0 87 1.7 WNW 26 30 14 16 1007.6 1007.5 0.0
28/08:30pm 29.5 32.5 27.3 88 1.6 WNW 26 30 14 16 1007.2 1007.1 0.0
28/08:00pm 29.5 32.3 26.9 86 1.9 WNW 26 32 14 17 1006.7 1006.6 0.0
28/07:30pm 29.7 32.7 27.3 87 1.7 WNW 26 30 14 16 1006.1 1006.0 0.0
28/07:00pm 29.7 32.6 27.1 86 1.9 WNW 26 30 14 16 1005.6 1005.5 0.0
28/06:30pm 29.8 32.9 26.8 84 2.2 WNW 24 28 13 15 1005.1 1005.0 0.0
28/06:00pm 30.2 33.3 26.8 82 2.4 WNW 24 28 13 15 1004.8 1004.7 0.0
28/05:30pm 30.3 33.7 26.7 81 2.6 WNW 22 28 12 15 1004.7 1004.6 0.0
28/05:00pm 30.5 33.3 26.4 79 2.9 WNW 24 28 13 15 1005.0 1004.9 0.0
28/04:30pm 31.2 34.6 26.7 77 3.2 WNW 22 28 12 15 1004.8 1004.7 0.0
28/04:00pm 31.4 35.1 27.1 78 3.1 WNW 22 30 12 16 1005.0 1004.9 0.0
28/03:30pm 31.5 34.7 27.0 77 3.3 WNW 24 28 13 15 1005.1 1005.0 0.0
28/03:00pm 31.8 35.6 27.3 77 3.3 WNW 22 28 12 15 1005.4 1005.3 0.0
28/02:30pm 31.8 35.0 27.0 76 3.5 WNW 24 28 13 15 1005.8 1005.7 0.0
28/02:00pm 31.7 36.1 27.6 79 3.0 WNW 20 26 11 14 1006.5 1006.4 0.0
28/01:30pm 31.4 35.2 27.3 79 3.0 WNW 22 26 12 14 1007.0 1006.9 0.0
28/01:00pm 31.5 36.2 28.0 82 2.6 WNW 20 24 11 13 1007.4 1007.3 0.0
28/12:30pm 31.4 35.6 27.1 78 3.1 WNW 19 24 10 13 1008.0 1007.9 0.0
28/12:00pm 30.8 35.6 27.4 82 2.5 W 17 20 9 11 1008.2 1008.1 0.0
28/11:30am 30.5 35.2 27.7 85 2.0 WNW 19 22 10 12 1008.5 1008.4 0.0
28/11:00am 30.1 34.3 27.1 84 2.2 W 19 22 10 12 1008.7 1008.6 0.0
28/10:30am 29.4 33.6 27.0 87 1.7 W 19 22 10 12 1008.8 1008.7 0.0
28/10:00am 29.1 34.7 27.9 93 0.9 W 15 19 8 10 1008.6 1008.5 0.0
28/09:30am 28.8 34.5 27.6 93 0.9 W 13 17 7 9 1008.6 1008.5 0.0
28/09:00am 28.8 34.6 27.7 94 0.8 WSW 13 15 7 8 1008.5 1008.4 1.0
28/08:30am 28.3 34.3 26.9 92 1.0 SSW 9 13 5 7 1008.1 1008.0 1.0
28/08:00am 28.5 34.1 26.9 91 1.1 WSW 11 13 6 7 1007.7 1007.6 1.0
28/07:30am 28.1 33.6 26.7 92 1.0 WSW 11 15 6 8 1007.5 1007.4 1.0
28/07:00am 27.9 33.4 26.8 94 0.8 W 11 13 6 7 1007.1 1007.0 1.0
28/06:30am 27.7 32.7 26.6 94 0.8 W 13 15 7 8 1006.7 1006.6 1.0
28/06:00am 27.6 33.1 26.7 95 0.6 W 11 13 6 7 1006.2 1006.1 1.0
28/05:30am 27.4 32.7 26.5 95 0.6 WNW 11 13 6 7 1006.0 1005.9 1.0
28/05:00am 27.3 32.8 26.8 97 0.4 W 11 13 6 7 1005.9 1005.8 1.0
28/04:30am 27.2 32.7 26.7 97 0.4 WNW 11 13 6 7 1006.0 1005.9 1.0
28/04:00am 27.1 33.1 26.9 99 0.1 WNW 9 13 5 7 1005.9 1005.8 1.0
28/03:30am 26.9 32.5 26.9 100 0.0 NW 11 13 6 7 1005.9 1005.8 1.0
28/03:00am 25.4 32.1 25.4 100 0.0 CALM 0 6 0 3 1006.2 1006.1 1.0
28/02:30am 25.2 30.6 25.2 100 0.0 SSE 6 7 3 4 1006.4 1006.3 1.0
28/02:00am 25.2 30.5 25.2 100 0.0 SSE 7 9 4 5 1006.6 1006.5 1.0
28/01:30am 25.1 30.3 25.1 100 0.0 SSE 7 7 4 4 1006.7 1006.6 1.0
28/01:00am 25.1 29.9 25.1 100 0.0 SE 9 9 5 5 1006.9 1006.8 1.0
28/12:30am 25.3 31.9 25.3 100 0.0 CALM 0 0 0 0 1007.0 1006.9 1.0
28/12:00am 25.3 30.6 25.3 100 0.0 S 7 9 4 5 1007.3 1007.2 1.0
 
Date/Time
CST
Temp
°C
App
Temp
°C
Dew
Point
°C
Rel
Hum
%
Delta-T
°C
Wind Press
QNH
hPa
Press
MSL
hPa
Rain since
9am
mm
Dir  Spd
km/h
Gust
km/h
Spd
kts
Gust
kts
27/11:30pm 25.6 32.4 25.6 100 0.0 CALM 0 0 0 0 1007.5 1007.4 1.0
27/11:00pm 25.7 32.6 25.7 100 0.0 CALM 0 0 0 0 1007.3 1007.2 1.0
27/10:30pm 25.8 31.6 25.8 100 0.0 S 6 9 3 5 1007.0 1006.9 1.0
27/10:00pm 25.4 30.4 25.4 100 0.0 ESE 9 11 5 6 1006.7 1006.6 1.0
27/09:30pm 25.4 30.3 25.2 99 0.1 SE 9 15 5 8 1006.7 1006.6 1.0
27/09:00pm 25.3 30.2 25.3 100 0.0 SE 9 13 5 7 1006.5 1006.4 1.0
27/08:30pm 25.2 30.1 25.2 100 0.0 ESE 9 11 5 6 1006.2 1006.1 1.0
27/08:00pm 25.2 31.8 25.2 100 0.0 CALM 0 6 0 3 1005.6 1005.5 1.0
27/07:30pm 25.3 31.6 25.3 100 0.0 S 2 7 1 4 1005.6 1005.5 1.0
27/07:00pm 25.6 29.0 24.7 95 0.6 SSE 15 24 8 13 1005.5 1005.4 0.4
27/06:30pm 27.3 29.7 24.6 85 1.9 S 20 35 11 19 1004.8 1004.7 0.0
27/06:00pm 28.6 31.4 25.2 82 2.4 WSW 20 24 11 13 1004.3 1004.2 0.0
27/05:30pm 30.2 33.7 25.5 76 3.3 WNW 17 20 9 11 1003.8 1003.7 0.0
27/05:00pm 30.2 33.5 25.7 77 3.2 NNW 19 22 10 12 1003.6 1003.5 0.0
27/04:30pm 30.6 33.8 25.9 76 3.4 NNW 20 22 11 12 1003.7 1003.6 0.0
27/04:00pm 30.4 34.1 26.3 79 2.9 NNW 19 20 10 11 1003.2 1003.1 0.0
27/03:30pm 30.9 34.2 25.7 74 3.7 NNW 19 22 10 12 1003.2 1003.1 0.0
27/03:00pm 31.4 35.9 26.9 77 3.3 NNW 17 20 9 11 1003.4 1003.3 0.0
27/02:30pm 30.9 35.4 26.4 77 3.2 NNW 15 19 8 10 1003.7 1003.6 0.0
27/02:00pm 30.5 35.2 26.7 80 2.7 NNW 15 17 8 9 1004.0 1003.9 0.0
27/01:30pm 30.1 35.4 26.5 81 2.6 NW 11 15 6 8 1004.5 1004.4 0.0
27/01:00pm 30.5 35.4 26.9 81 2.6 NNW 15 19 8 10 1005.0 1004.9 0.0
27/12:30pm 31.0 34.4 26.7 78 3.1 N 22 24 12 13 1005.2 1005.1 0.0
27/12:00pm 30.5 34.5 27.1 82 2.5 N 20 24 11 13 1005.5 1005.4 0.0
27/11:30am 30.4 34.9 27.8 86 1.9 N 20 22 11 12 1005.7 1005.6 0.0
27/11:00am 30.1 35.8 27.5 86 1.9 NNW 13 15 7 8 1006.0 1005.9 0.0
27/10:30am 30.3 36.0 27.5 85 2.0 N 13 20 7 11 1006.2 1006.1 0.0

Other formats

Comma delimited format used in spreadsheet applications
http://www.bom.gov.au/fwo/IDD60801/IDD60801.95146.axf

JavaScript Object Notation format (JSON) in row-major order
http://www.bom.gov.au/fwo/IDD60801/IDD60801.95146.json

Data quality

Most of these data are generated automatically and are frequently updated. Quality checks on data are not normally performed. It is possible for incorrect values to appear. Refer to information at About Latest Weather Observations and please check the disclaimer before using these data.